Time;durP1;ratioP1;P1;durP2;ratioP2;P2;SDS_P1;SDS_P2;PMS_P1;PMS_P2;Temp;Humidity;BMP_temperature;BMP_pressure;BME280_temperature;BME280_humidity;BME280_pressure;Samples;Min_cycle;Max_cycle;Signal;HPM_P1;HPM_P2
2022/02/08 00:00:53;;;;;;;;;;;18.20;99.90;;;;;;5055473;28;1540;-49
2022/02/08 00:03:20;;;;;;;;;;;18.20;99.90;;;;;;5054972;28;1914;-59
2022/02/08 00:05:58;;;;;;;;;;;18.10;99.90;;;;;;5022777;28;1361;-59
2022/02/08 00:08:26;;;;;;;;;;;18.10;99.90;;;;;;5023613;28;1417;-58
2022/02/08 00:10:53;;;;;;;;;;;18.10;99.90;;;;;;5057967;28;1118;-58
2022/02/08 00:13:21;;;;;;;;;;;18.00;99.90;;;;;;5049493;28;1207;-59
2022/02/08 00:15:49;;;;;;;;;;;17.90;99.90;;;;;;5066287;28;1171;-58
2022/02/08 00:18:16;;;;;;;;;;;17.90;99.90;;;;;;5059874;28;1084;-59
2022/02/08 00:20:43;;;;;;;;;;;17.80;99.90;;;;;;5072860;28;941;-59
2022/02/08 00:23:09;;;;;;;;;;;17.80;99.90;;;;;;5074880;28;1910;-58
2022/02/08 00:25:35;;;;;;;;;;;17.70;99.90;;;;;;5056616;28;915;-59
2022/02/08 00:28:04;;;;;;;;;;;17.70;99.90;;;;;;5074655;28;837;-48
2022/02/08 00:30:33;;;;;;;;;;;17.60;99.90;;;;;;5053431;28;957;-48
2022/02/08 00:33:00;;;;;;;;;;;17.60;99.90;;;;;;5014841;28;911;-48
2022/02/08 00:35:27;;;;;;;;;;;17.60;99.90;;;;;;4998754;28;842;-48
2022/02/08 00:37:55;;;;;;;;;;;17.50;99.90;;;;;;4998603;28;916;-49
2022/02/08 00:40:25;;;;;;;;;;;17.50;99.90;;;;;;5015025;28;1484;-48
2022/02/08 00:42:51;;;;;;;;;;;17.40;99.90;;;;;;5012084;28;907;-48
2022/02/08 00:50:50;;;;;;;;;;;17.30;99.90;;;;;;5002248;28;924;-48
2022/02/08 00:53:18;;;;;;;;;;;17.20;99.90;;;;;;5002649;28;1010;-48
2022/02/08 00:55:45;;;;;;;;;;;17.20;99.90;;;;;;5018656;28;1078;-58
2022/02/08 00:58:12;;;;;;;;;;;17.10;99.90;;;;;;5022174;28;1084;-59
2022/02/08 01:00:39;;;;;;;;;;;17.10;99.90;;;;;;5036300;28;964;-58
2022/02/08 01:03:08;;;;;;;;;;;17.10;99.90;;;;;;5042106;28;966;-48
2022/02/08 01:05:39;;;;;;;;;;;17.00;99.90;;;;;;5062926;28;1963;-48
2022/02/08 01:08:07;;;;;;;;;;;17.00;99.90;;;;;;5059769;28;893;-48
2022/02/08 01:10:37;;;;;;;;;;;16.90;99.90;;;;;;5042386;28;1095;-48
2022/02/08 01:13:06;;;;;;;;;;;16.90;99.90;;;;;;5059430;28;861;-58
2022/02/08 01:15:33;;;;;;;;;;;16.80;99.90;;;;;;5059004;28;866;-48
2022/02/08 01:18:00;;;;;;;;;;;16.80;99.90;;;;;;5059474;28;1337;-48
2022/02/08 01:20:32;;;;;;;;;;;16.80;99.90;;;;;;5024084;28;883;-48
2022/02/08 01:23:01;;;;;;;;;;;16.70;99.90;;;;;;5042986;28;978;-48
2022/02/08 01:25:53;;;;;;;;;;;16.70;99.90;;;;;;5064179;28;1906;-48
2022/02/08 01:36:20;;;;;;;;;;;16.50;99.90;;;;;;5070608;28;803;-48
2022/02/08 01:38:53;;;;;;;;;;;16.50;99.90;;;;;;5077599;28;1219;-48
2022/02/08 01:41:50;;;;;;;;;;;16.40;99.90;;;;;;5001133;28;988;-48
2022/02/08 01:48:01;;;;;;;;;;;16.40;99.90;;;;;;5004045;28;692;-49
2022/02/08 01:50:28;;;;;;;;;;;16.30;99.90;;;;;;4981428;28;843;-48
2022/02/08 01:52:54;;;;;;;;;;;16.30;99.90;;;;;;4996962;28;1164;-48
2022/02/08 01:55:21;;;;;;;;;;;16.30;99.90;;;;;;4948556;28;1228;-48
2022/02/08 01:57:49;;;;;;;;;;;16.20;99.90;;;;;;4997276;28;818;-48
2022/02/08 02:00:16;;;;;;;;;;;16.20;99.90;;;;;;4996488;28;893;-48
2022/02/08 02:02:43;;;;;;;;;;;16.20;99.90;;;;;;4997557;28;862;-48
2022/02/08 02:05:10;;;;;;;;;;;16.10;99.90;;;;;;4964850;28;1971;-48
2022/02/08 02:07:46;;;;;;;;;;;16.10;99.90;;;;;;5016170;28;888;-48
2022/02/08 02:10:13;;;;;;;;;;;16.10;99.90;;;;;;4992059;28;848;-58
2022/02/08 02:12:48;;;;;;;;;;;16.00;99.90;;;;;;5035888;28;1089;-49
2022/02/08 02:15:15;;;;;;;;;;;16.00;99.90;;;;;;5057558;28;1055;-48
2022/02/08 02:17:41;;;;;;;;;;;15.90;99.90;;;;;;5058345;28;830;-48
2022/02/08 02:20:08;;;;;;;;;;;15.90;99.90;;;;;;5058110;28;692;-48
2022/02/08 02:22:39;;;;;;;;;;;15.90;99.90;;;;;;5057381;28;884;-48
2022/02/08 02:25:05;;;;;;;;;;;15.90;99.90;;;;;;5058436;28;1902;-48
2022/02/08 02:27:31;;;;;;;;;;;15.80;99.90;;;;;;5023655;28;913;-48
2022/02/08 02:29:58;;;;;;;;;;;15.80;99.90;;;;;;5058096;28;1036;-48
2022/02/08 02:32:23;;;;;;;;;;;15.80;99.90;;;;;;5058298;28;781;-48
2022/02/08 02:34:50;;;;;;;;;;;15.70;99.90;;;;;;5058244;28;742;-48
2022/02/08 02:37:17;;;;;;;;;;;15.70;99.90;;;;;;5020701;28;997;-48
2022/02/08 02:39:44;;;;;;;;;;;15.70;99.90;;;;;;5051831;28;803;-48
2022/02/08 02:42:14;;;;;;;;;;;15.60;99.90;;;;;;5046245;28;916;-48
2022/02/08 02:44:42;;;;;;;;;;;15.60;99.90;;;;;;5073735;28;1967;-48
2022/02/08 02:47:08;;;;;;;;;;;15.60;99.90;;;;;;5056672;28;1429;-48
2022/02/08 02:49:37;;;;;;;;;;;15.50;99.90;;;;;;5051721;28;1008;-48
2022/02/08 02:52:07;;;;;;;;;;;15.50;99.90;;;;;;5058455;28;1073;-48
2022/02/08 02:54:33;;;;;;;;;;;15.50;99.90;;;;;;5076491;28;831;-48
2022/02/08 02:57:01;;;;;;;;;;;15.40;99.90;;;;;;5026297;28;1103;-48
2022/02/08 02:59:30;;;;;;;;;;;15.50;99.90;;;;;;5057555;28;1151;-48
2022/02/08 03:20:39;;;;;;;;;;;15.20;99.90;;;;;;5057696;28;798;-48
2022/02/08 03:23:05;;;;;;;;;;;15.20;99.90;;;;;;5043172;28;1409;-48
2022/02/08 03:25:32;;;;;;;;;;;15.10;99.90;;;;;;5057568;28;1952;-48
2022/02/08 03:27:59;;;;;;;;;;;15.10;99.90;;;;;;5074928;28;848;-48
2022/02/08 03:30:26;;;;;;;;;;;15.10;99.90;;;;;;5075458;28;1155;-48
2022/02/08 03:32:53;;;;;;;;;;;15.10;99.90;;;;;;5074884;28;896;-48
2022/02/08 03:35:24;;;;;;;;;;;15.10;99.90;;;;;;5061114;28;892;-58
2022/02/08 03:38:00;;;;;;;;;;;15.00;99.90;;;;;;5057158;28;794;-48
2022/02/08 03:40:38;;;;;;;;;;;15.00;99.90;;;;;;5056575;28;822;-48
2022/02/08 03:43:26;;;;;;;;;;;15.00;99.90;;;;;;5056720;28;774;-48
2022/02/08 03:45:56;;;;;;;;;;;14.90;99.90;;;;;;5053265;28;1906;-58
2022/02/08 03:48:26;;;;;;;;;;;14.90;99.90;;;;;;5056751;28;755;-58
2022/02/08 03:50:56;;;;;;;;;;;14.90;99.90;;;;;;5056929;28;816;-58
2022/02/08 03:53:23;;;;;;;;;;;14.90;99.90;;;;;;5038805;28;991;-48
2022/02/08 03:55:50;;;;;;;;;;;14.90;99.90;;;;;;5015362;28;979;-58
2022/02/08 03:58:17;;;;;;;;;;;14.90;99.90;;;;;;4998412;28;1025;-59
2022/02/08 04:01:34;;;;;;;;;;;14.80;99.90;;;;;;5015001;28;808;-48
2022/02/08 04:04:14;;;;;;;;;;;14.80;99.90;;;;;;5015395;28;1910;-48
2022/02/08 04:06:38;;;;;;;;;;;14.80;99.90;;;;;;5014636;28;1580;-48
2022/02/08 04:09:07;;;;;;;;;;;14.80;99.90;;;;;;5015364;28;770;-48
2022/02/08 04:11:37;;;;;;;;;;;14.70;99.90;;;;;;5013919;28;913;-48
2022/02/08 04:14:29;;;;;;;;;;;14.70;99.90;;;;;;5014186;28;924;-48
2022/02/08 04:16:52;;;;;;;;;;;14.70;99.90;;;;;;5013556;28;1177;-58
2022/02/08 04:19:25;;;;;;;;;;;14.70;99.90;;;;;;5008336;28;960;-58
2022/02/08 04:33:29;;;;;;;;;;;14.60;99.90;;;;;;5081567;28;782;-57
2022/02/08 04:36:13;;;;;;;;;;;14.50;99.90;;;;;;5068965;28;1626;-57
2022/02/08 04:41:35;;;;;;;;;;;14.50;99.90;;;;;;5067059;28;840;-48
2022/02/08 04:47:27;;;;;;;;;;;14.40;99.90;;;;;;5081292;28;801;-48
2022/02/08 04:49:28;;;;;;;;;;;14.40;99.90;;;;;;5051557;28;1055;-48
2022/02/08 04:52:01;;;;;;;;;;;14.40;99.90;;;;;;5027987;28;873;-48
2022/02/08 04:54:39;;;;;;;;;;;14.40;99.90;;;;;;4994427;28;1288;-48
2022/02/08 04:57:27;;;;;;;;;;;14.40;99.90;;;;;;5060139;28;1191;-57
2022/02/08 05:36:29;;;;;;;;;;;14.10;99.90;;;;;;5043758;28;860;-58
2022/02/08 05:44:13;;;;;;;;;;;14.10;99.90;;;;;;5059056;28;1906;-58
2022/02/08 05:46:49;;;;;;;;;;;14.00;99.90;;;;;;5026056;28;1356;-58
2022/02/08 05:49:23;;;;;;;;;;;14.00;99.90;;;;;;5061839;28;1004;-58
2022/02/08 05:54:16;;;;;;;;;;;14.00;99.90;;;;;;5014185;28;1456;-58
2022/02/08 05:56:55;;;;;;;;;;;14.00;99.90;;;;;;4997788;28;1019;-58
2022/02/08 05:59:33;;;;;;;;;;;14.00;99.90;;;;;;4997917;28;1237;-58
2022/02/08 06:01:59;;;;;;;;;;;13.90;99.90;;;;;;4981527;28;967;-58
2022/02/08 06:04:27;;;;;;;;;;;13.90;99.90;;;;;;4997277;28;1973;-58
2022/02/08 06:06:56;;;;;;;;;;;14.00;99.90;;;;;;4997694;28;786;-48
2022/02/08 06:09:22;;;;;;;;;;;14.00;99.90;;;;;;4981782;28;949;-48
2022/02/08 06:11:49;;;;;;;;;;;14.00;99.90;;;;;;4997573;28;1101;-48
2022/02/08 06:14:36;;;;;;;;;;;14.00;99.90;;;;;;4997999;28;1057;-49
2022/02/08 06:17:03;;;;;;;;;;;14.00;99.90;;;;;;4997779;28;964;-52
2022/02/08 06:19:30;;;;;;;;;;;14.00;99.90;;;;;;4997557;28;944;-48
2022/02/08 06:21:56;;;;;;;;;;;14.10;99.90;;;;;;4964706;28;979;-48
2022/02/08 06:24:23;;;;;;;;;;;14.10;99.90;;;;;;4981247;28;1903;-48
2022/02/08 06:26:50;;;;;;;;;;;14.10;99.90;;;;;;4980981;28;1490;-48
2022/02/08 06:29:32;;;;;;;;;;;14.10;99.90;;;;;;5009282;28;1166;-48
2022/02/08 06:31:59;;;;;;;;;;;14.20;99.90;;;;;;5058384;28;793;-48
2022/02/08 06:34:30;;;;;;;;;;;14.20;99.90;;;;;;5058048;28;842;-48
2022/02/08 06:37:04;;;;;;;;;;;14.20;99.90;;;;;;5058007;28;817;-48
2022/02/08 06:39:48;;;;;;;;;;;14.20;99.90;;;;;;5031142;28;882;-48
2022/02/08 06:42:14;;;;;;;;;;;14.30;99.90;;;;;;5021928;28;1003;-48
2022/02/08 06:44:43;;;;;;;;;;;14.30;99.90;;;;;;5039988;28;1973;-48
2022/02/08 06:47:10;;;;;;;;;;;14.40;99.90;;;;;;5073885;28;877;-48
2022/02/08 06:49:36;;;;;;;;;;;14.40;99.90;;;;;;5057225;28;1483;-48
2022/02/08 06:52:04;;;;;;;;;;;14.40;99.90;;;;;;5058109;28;790;-48
2022/02/08 06:54:30;;;;;;;;;;;14.50;99.90;;;;;;5023393;28;1003;-48
2022/02/08 06:56:56;;;;;;;;;;;14.50;99.90;;;;;;5057814;28;846;-48
2022/02/08 06:59:23;;;;;;;;;;;14.50;99.90;;;;;;5039199;28;1112;-48
2022/02/08 07:01:51;;;;;;;;;;;14.60;99.90;;;;;;5057209;28;1142;-48
2022/02/08 07:04:18;;;;;;;;;;;14.60;99.90;;;;;;5057034;28;1899;-48
2022/02/08 07:06:45;;;;;;;;;;;14.70;99.90;;;;;;5057295;28;877;-48
2022/02/08 07:09:13;;;;;;;;;;;14.70;99.90;;;;;;5057626;28;754;-48
2022/02/08 07:11:40;;;;;;;;;;;14.70;99.90;;;;;;5057146;28;918;-48
2022/02/08 07:14:31;;;;;;;;;;;14.80;99.90;;;;;;5043068;28;773;-48
2022/02/08 07:16:58;;;;;;;;;;;14.80;99.90;;;;;;5074510;28;873;-48
2022/02/08 07:19:26;;;;;;;;;;;14.80;99.90;;;;;;5057131;28;877;-48
2022/02/08 07:21:53;;;;;;;;;;;14.80;99.90;;;;;;5022207;28;936;-48
2022/02/08 07:24:20;;;;;;;;;;;14.90;99.90;;;;;;5057240;28;1959;-48
2022/02/08 07:26:47;;;;;;;;;;;14.90;99.90;;;;;;5038288;28;1811;-48
2022/02/08 07:29:14;;;;;;;;;;;14.90;99.90;;;;;;5055671;28;1100;-48
2022/02/08 07:31:49;;;;;;;;;;;14.90;99.90;;;;;;5056939;28;1112;-48
2022/02/08 07:34:25;;;;;;;;;;;14.90;99.90;;;;;;5058441;28;1313;-48
2022/02/08 07:41:35;;;;;;;;;;;15.00;99.90;;;;;;5062999;28;1103;-48
2022/02/08 07:43:03;;;;;;;;;;;15.10;99.90;;;;;;5021248;28;1374;-48
2022/02/08 07:45:29;;;;;;;;;;;15.10;99.90;;;;;;5058077;28;1961;-58
2022/02/08 07:48:00;;;;;;;;;;;15.10;99.90;;;;;;5057317;28;825;-48
2022/02/08 07:50:28;;;;;;;;;;;15.10;99.90;;;;;;5056337;28;866;-48
2022/02/08 07:52:54;;;;;;;;;;;15.20;99.90;;;;;;5038724;28;1033;-48
2022/02/08 07:55:22;;;;;;;;;;;15.20;99.90;;;;;;5057120;28;840;-48
2022/02/08 07:57:51;;;;;;;;;;;15.30;99.90;;;;;;5056009;28;1446;-48
2022/02/08 08:00:18;;;;;;;;;;;15.30;99.90;;;;;;5057204;28;833;-48
2022/02/08 08:02:44;;;;;;;;;;;15.30;99.90;;;;;;5056977;28;1211;-49
2022/02/08 08:05:13;;;;;;;;;;;15.30;99.90;;;;;;5056611;28;1902;-48
2022/02/08 08:07:39;;;;;;;;;;;15.30;99.90;;;;;;5056639;28;926;-48
2022/02/08 08:10:06;;;;;;;;;;;15.40;99.90;;;;;;5056559;28;1000;-48
2022/02/08 08:12:35;;;;;;;;;;;15.40;99.90;;;;;;5056100;28;785;-48
2022/02/08 08:15:12;;;;;;;;;;;15.40;99.90;;;;;;5015159;28;857;-48
2022/02/08 08:18:15;;;;;;;;;;;15.40;99.90;;;;;;4998926;28;972;-48
2022/02/08 08:20:26;;;;;;;;;;;15.50;99.90;;;;;;5015050;28;1535;-48
2022/02/08 08:22:54;;;;;;;;;;;15.50;99.90;;;;;;5018527;28;1963;-58
2022/02/08 08:25:21;;;;;;;;;;;15.50;99.90;;;;;;5015407;28;1974;-58
2022/02/08 08:27:48;;;;;;;;;;;15.60;99.90;;;;;;5032448;28;1037;-58
2022/02/08 08:30:20;;;;;;;;;;;15.60;99.90;;;;;;5021680;28;1731;-58
2022/02/08 08:32:46;;;;;;;;;;;15.60;99.90;;;;;;5010000;28;961;-58
2022/02/08 08:35:15;;;;;;;;;;;15.60;99.90;;;;;;5014768;28;993;-58
2022/02/08 08:37:44;;;;;;;;;;;15.60;99.90;;;;;;5014387;28;1614;-59
2022/02/08 08:40:25;;;;;;;;;;;15.60;99.90;;;;;;5032901;28;915;-58
2022/02/08 08:43:22;;;;;;;;;;;15.60;99.90;;;;;;5015950;28;1120;-58
2022/02/08 08:53:46;;;;;;;;;;;15.70;99.90;;;;;;4927441;28;975;-58
2022/02/08 08:56:14;;;;;;;;;;;15.70;99.90;;;;;;4947275;28;1682;-58
2022/02/08 08:58:44;;;;;;;;;;;15.70;99.90;;;;;;4992535;28;790;-58
2022/02/08 09:01:13;;;;;;;;;;;15.70;99.90;;;;;;4993391;28;968;-48
2022/02/08 09:03:47;;;;;;;;;;;15.80;99.90;;;;;;4958773;28;972;-48
2022/02/08 09:06:17;;;;;;;;;;;15.70;99.90;;;;;;4961079;28;1906;-49
2022/02/08 09:08:48;;;;;;;;;;;15.80;99.90;;;;;;4995042;28;1395;-58
2022/02/08 09:14:09;;;;;;;;;;;15.80;99.90;;;;;;4980333;28;1533;-58
2022/02/08 09:16:44;;;;;;;;;;;15.90;99.90;;;;;;4996867;28;867;-58
2022/02/08 09:29:49;;;;;;;;;;;15.90;99.90;;;;;;5045903;28;1612;-58
2022/02/08 09:32:19;;;;;;;;;;;16.00;99.90;;;;;;5024804;28;955;-58
2022/02/08 09:34:46;;;;;;;;;;;16.00;99.90;;;;;;5058933;28;926;-58
2022/02/08 09:37:15;;;;;;;;;;;16.00;99.90;;;;;;5024515;28;957;-58
2022/02/08 09:39:44;;;;;;;;;;;16.00;99.90;;;;;;5058679;28;1008;-58
2022/02/08 09:42:12;;;;;;;;;;;16.00;99.90;;;;;;5058259;28;1293;-58
2022/02/08 09:44:40;;;;;;;;;;;16.00;99.90;;;;;;5060851;28;1981;-58
2022/02/08 09:47:13;;;;;;;;;;;16.00;99.90;;;;;;5058582;28;1340;-58
2022/02/08 09:50:08;;;;;;;;;;;16.00;99.90;;;;;;5058497;28;1087;-58
2022/02/08 09:52:39;;;;;;;;;;;16.10;99.90;;;;;;5000044;28;1029;-58
2022/02/08 09:55:10;;;;;;;;;;;16.20;99.90;;;;;;5058258;28;783;-58
2022/02/08 09:57:38;;;;;;;;;;;16.30;99.90;;;;;;5040613;28;889;-58
2022/02/08 10:00:05;;;;;;;;;;;16.30;99.90;;;;;;5024187;28;1007;-58
2022/02/08 10:02:36;;;;;;;;;;;16.40;99.90;;;;;;5041101;28;897;-58
2022/02/08 10:05:03;;;;;;;;;;;16.40;99.90;;;;;;5057800;28;1905;-58
2022/02/08 10:07:50;;;;;;;;;;;16.40;99.90;;;;;;5058561;28;643;-58
2022/02/08 10:10:24;;;;;;;;;;;16.50;99.90;;;;;;5058574;28;779;-58
2022/02/08 10:24:00;;;;;;;;;;;16.70;99.90;;;;;;4977468;28;757;-58
2022/02/08 10:26:35;;;;;;;;;;;16.80;99.90;;;;;;4977888;28;1903;-59
2022/02/08 10:29:24;;;;;;;;;;;16.90;99.90;;;;;;4977587;28;1669;-58
2022/02/08 10:39:59;;;;;;;;;;;17.10;99.90;;;;;;4995526;28;971;-58
2022/02/08 10:42:26;;;;;;;;;;;17.10;99.90;;;;;;4985176;28;1003;-59
2022/02/08 10:44:52;;;;;;;;;;;17.20;99.90;;;;;;4976978;28;1906;-58
2022/02/08 10:47:30;;;;;;;;;;;17.30;99.90;;;;;;4993162;28;903;-59
2022/02/08 10:49:56;;;;;;;;;;;17.40;99.90;;;;;;4978174;28;857;-59
2022/02/08 10:52:26;;;;;;;;;;;17.50;99.90;;;;;;5009884;28;971;-58
2022/02/08 10:54:55;;;;;;;;;;;17.50;99.90;;;;;;5038454;28;1091;-59
2022/02/08 10:57:26;;;;;;;;;;;17.50;99.90;;;;;;5057609;28;825;-59
2022/02/08 10:59:59;;;;;;;;;;;17.50;99.90;;;;;;5057492;28;888;-59
2022/02/08 11:02:34;;;;;;;;;;;17.50;99.90;;;;;;5060867;28;1565;-59
2022/02/08 11:08:30;;;;;;;;;;;17.60;99.90;;;;;;4998232;28;1302;-59
2022/02/08 11:11:10;;;;;;;;;;;17.60;99.90;;;;;;4994692;28;1904;-58
2022/02/08 11:16:26;;;;;;;;;;;17.60;99.90;;;;;;5014565;28;855;-58
2022/02/08 11:21:45;;;;;;;;;;;17.60;99.90;;;;;;4995652;28;1331;-58
2022/02/08 11:24:26;;;;;;;;;;;17.60;99.90;;;;;;4995555;28;933;-59
2022/02/08 11:26:58;;;;;;;;;;;17.60;99.90;;;;;;4996558;28;1902;-59
2022/02/08 11:29:36;;;;;;;;;;;17.60;99.90;;;;;;4995813;28;1598;-58
2022/02/08 11:32:05;;;;;;;;;;;17.60;99.90;;;;;;4994573;28;1441;-58
2022/02/08 11:46:23;;;;;;;;;;;17.60;99.90;;;;;;5029380;28;1914;-58
2022/02/08 11:52:03;;;;;;;;;;;17.60;99.90;;;;;;5055899;28;1182;-48
2022/02/08 12:03:01;;;;;;;;;;;17.60;99.90;;;;;;5051834;28;1384;-49
2022/02/08 12:07:48;;;;;;;;;;;17.60;99.90;;;;;;5056049;28;817;-49
2022/02/08 12:10:29;;;;;;;;;;;17.60;99.90;;;;;;5056300;28;938;-49
2022/02/08 12:14:00;;;;;;;;;;;17.60;99.90;;;;;;5067613;28;1042;-49
2022/02/08 12:31:03;;;;;;;;;;;17.50;99.90;;;;;;5044367;28;1641;-49
2022/02/08 12:33:19;;;;;;;;;;;17.50;99.90;;;;;;5053730;28;1013;-58
2022/02/08 13:01:12;;;;;;;;;;;17.70;99.90;;;;;;4992543;28;1051;-59
2022/02/08 13:03:52;;;;;;;;;;;17.70;99.90;;;;;;4979224;28;1481;-59
2022/02/08 13:14:17;;;;;;;;;;;17.70;99.90;;;;;;4946638;28;1899;-59
2022/02/08 14:02:20;;;;;;;;;;;17.80;99.90;;;;;;5057839;28;1385;-58
2022/02/08 14:08:40;;;;;;;;;;;17.70;99.90;;;;;;5070035;28;1384;-59
2022/02/08 14:32:26;;;;;;;;;;;17.70;99.90;;;;;;4995701;28;1234;-59
2022/02/08 15:10:34;;;;;;;;;;;17.80;99.90;;;;;;4995935;28;1015;-49
2022/02/08 15:13:06;;;;;;;;;;;17.90;99.90;;;;;;4992273;28;1172;-48
2022/02/08 15:18:20;;;;;;;;;;;17.90;99.90;;;;;;4991991;28;1073;-49
2022/02/08 15:20:46;;;;;;;;;;;17.90;99.90;;;;;;4997424;28;1070;-49
2022/02/08 15:23:35;;;;;;;;;;;17.90;99.90;;;;;;4998964;28;1032;-49
2022/02/08 15:26:03;;;;;;;;;;;17.90;99.90;;;;;;4994850;28;1914;-49
2022/02/08 15:28:32;;;;;;;;;;;17.90;99.90;;;;;;4952262;28;1249;-48
2022/02/08 15:30:58;;;;;;;;;;;17.90;99.90;;;;;;4999350;28;1716;-46
2022/02/08 15:33:25;;;;;;;;;;;17.90;99.90;;;;;;5002134;28;1002;-48
2022/02/08 15:35:53;;;;;;;;;;;17.90;99.90;;;;;;4998123;28;1127;-48
2022/02/08 15:38:33;;;;;;;;;;;18.00;99.90;;;;;;4995653;28;1014;-48
2022/02/08 15:41:02;;;;;;;;;;;18.00;99.90;;;;;;5039270;28;1175;-49
2022/02/08 15:43:30;;;;;;;;;;;18.00;99.90;;;;;;5054804;28;1174;-49
2022/02/08 15:48:49;;;;;;;;;;;18.00;99.90;;;;;;5014011;28;1401;-48
2022/02/08 15:51:25;;;;;;;;;;;18.00;99.90;;;;;;5015031;28;1123;-48
2022/02/08 15:56:56;;;;;;;;;;;18.00;99.90;;;;;;5001165;28;1180;-49
2022/02/08 16:05:20;;;;;;;;;;;18.00;99.90;;;;;;5014897;28;947;-48
2022/02/08 16:07:36;;;;;;;;;;;18.00;99.90;;;;;;5008223;28;1973;-48
2022/02/08 16:10:09;;;;;;;;;;;18.00;99.90;;;;;;5015001;28;1141;-48
2022/02/08 16:15:31;;;;;;;;;;;18.00;99.90;;;;;;5014516;28;975;-48
2022/02/08 16:20:41;;;;;;;;;;;18.10;99.90;;;;;;5009459;28;1169;-48
2022/02/08 16:49:00;;;;;;;;;;;18.10;99.90;;;;;;4888449;29;1144;-48
2022/02/08 16:53:58;;;;;;;;;;;18.10;99.90;;;;;;4924745;29;1080;-48
2022/02/08 16:56:25;;;;;;;;;;;18.00;99.90;;;;;;4918864;29;1329;-48
2022/02/08 16:58:54;;;;;;;;;;;18.00;99.90;;;;;;4917910;29;1268;-48
2022/02/08 17:01:25;;;;;;;;;;;18.00;99.90;;;;;;4868349;29;1306;-59
2022/02/08 17:03:51;;;;;;;;;;;18.00;99.90;;;;;;4876653;29;1314;-59
2022/02/08 17:06:21;;;;;;;;;;;18.00;99.90;;;;;;4921203;29;1978;-59
2022/02/08 17:08:52;;;;;;;;;;;18.00;99.90;;;;;;4930558;29;1403;-59
2022/02/08 17:11:27;;;;;;;;;;;18.00;99.90;;;;;;4971041;28;1300;-59
2022/02/08 17:37:57;;;;;;;;;;;18.00;99.90;;;;;;5058283;28;1779;-59
2022/02/08 17:50:20;;;;;;;;;;;17.60;99.90;;;;;;4942299;28;1028;-58
2022/02/08 17:52:47;;;;;;;;;;;17.50;99.90;;;;;;4910033;28;1410;-58
2022/02/08 17:55:14;;;;;;;;;;;17.50;99.90;;;;;;4957962;28;955;-58
2022/02/08 17:57:41;;;;;;;;;;;17.50;99.90;;;;;;4939658;28;999;-58
2022/02/08 18:00:10;;;;;;;;;;;17.50;99.90;;;;;;4976045;28;901;-58
2022/02/08 18:02:43;;;;;;;;;;;17.50;99.90;;;;;;4960533;28;1010;-58
2022/02/08 18:05:14;;;;;;;;;;;17.60;99.90;;;;;;4976982;28;808;-58
2022/02/08 18:07:44;;;;;;;;;;;17.50;99.90;;;;;;4945129;28;2055;-58
2022/02/08 18:10:11;;;;;;;;;;;17.50;99.90;;;;;;4976680;28;1108;-58
2022/02/08 18:12:42;;;;;;;;;;;17.50;99.90;;;;;;4976721;28;1035;-58
2022/02/08 18:15:13;;;;;;;;;;;17.50;99.90;;;;;;4976146;28;1103;-58
2022/02/08 18:18:07;;;;;;;;;;;17.50;99.90;;;;;;4969829;28;838;-58
2022/02/08 19:09:14;;;;;;;;;;;17.10;99.90;;;;;;5056343;28;853;-58
2022/02/08 19:11:50;;;;;;;;;;;17.10;99.90;;;;;;5055997;28;906;-58
2022/02/08 19:20:01;;;;;;;;;;;17.00;99.90;;;;;;5053160;28;1876;-58
2022/02/08 19:22:27;;;;;;;;;;;17.00;99.90;;;;;;5037413;28;894;-58
2022/02/08 19:24:56;;;;;;;;;;;16.90;99.90;;;;;;5019558;28;1040;-58
2022/02/08 19:27:22;;;;;;;;;;;16.90;99.90;;;;;;5037389;28;1902;-58
2022/02/08 19:29:50;;;;;;;;;;;16.90;99.90;;;;;;5019215;28;1167;-58
2022/02/08 19:32:16;;;;;;;;;;;16.90;99.90;;;;;;5037201;28;841;-58
2022/02/08 19:34:46;;;;;;;;;;;16.90;99.90;;;;;;5033218;28;1437;-59
2022/02/08 19:37:17;;;;;;;;;;;16.80;99.90;;;;;;5018333;28;1100;-58
2022/02/08 19:39:44;;;;;;;;;;;16.80;99.90;;;;;;5034221;28;1527;-58
2022/02/08 19:42:11;;;;;;;;;;;16.80;99.90;;;;;;5034284;28;935;-58
2022/02/08 19:44:38;;;;;;;;;;;16.80;99.90;;;;;;5035298;28;847;-58
2022/02/08 19:47:07;;;;;;;;;;;16.80;99.90;;;;;;5035273;28;1907;-58
2022/02/08 19:49:35;;;;;;;;;;;16.70;99.90;;;;;;5019192;28;966;-58
2022/02/08 19:52:03;;;;;;;;;;;16.70;99.90;;;;;;5035333;28;924;-58
2022/02/08 19:54:36;;;;;;;;;;;16.70;99.90;;;;;;5034616;28;912;-58
2022/02/08 19:57:18;;;;;;;;;;;16.70;99.90;;;;;;5020110;28;946;-58
2022/02/08 20:00:06;;;;;;;;;;;16.70;99.90;;;;;;5032311;28;1197;-58
2022/02/08 20:02:38;;;;;;;;;;;16.60;99.90;;;;;;5002138;28;955;-58
2022/02/08 20:05:05;;;;;;;;;;;16.60;99.90;;;;;;5053794;28;957;-58
2022/02/08 20:07:32;;;;;;;;;;;16.60;99.90;;;;;;5054957;28;1902;-58
2022/02/08 20:09:58;;;;;;;;;;;16.60;99.90;;;;;;5054912;28;845;-58
2022/02/08 20:12:25;;;;;;;;;;;16.60;99.90;;;;;;5036381;28;973;-58
2022/02/08 20:14:51;;;;;;;;;;;16.60;99.90;;;;;;5054830;28;907;-58
2022/02/08 20:17:19;;;;;;;;;;;16.60;99.90;;;;;;5033137;28;939;-58
2022/02/08 20:19:47;;;;;;;;;;;16.60;99.90;;;;;;5036973;28;794;-58
2022/02/08 20:22:14;;;;;;;;;;;16.50;99.90;;;;;;5036725;28;770;-58
2022/02/08 20:24:42;;;;;;;;;;;16.60;99.90;;;;;;5018174;28;962;-58
2022/02/08 20:29:58;;;;;;;;;;;16.50;99.90;;;;;;4988939;28;1131;-58
2022/02/08 20:32:24;;;;;;;;;;;16.50;99.90;;;;;;4960013;28;951;-58
2022/02/08 20:34:50;;;;;;;;;;;16.50;99.90;;;;;;4975108;28;1056;-58
2022/02/08 20:37:16;;;;;;;;;;;16.50;99.90;;;;;;4976175;28;767;-58
2022/02/08 20:39:43;;;;;;;;;;;16.40;99.90;;;;;;4975492;28;862;-58
2022/02/08 20:42:11;;;;;;;;;;;16.40;99.90;;;;;;4930763;28;1047;-58
2022/02/08 20:44:43;;;;;;;;;;;16.40;99.90;;;;;;4994111;28;910;-58
2022/02/08 20:47:20;;;;;;;;;;;16.40;99.90;;;;;;4991644;28;1969;-58
2022/02/08 20:49:52;;;;;;;;;;;16.40;99.90;;;;;;4975678;28;891;-58
2022/02/08 20:52:19;;;;;;;;;;;16.40;99.90;;;;;;4975739;28;865;-58
2022/02/08 20:54:51;;;;;;;;;;;16.40;99.90;;;;;;4968831;28;1423;-48
2022/02/08 20:57:24;;;;;;;;;;;16.40;99.90;;;;;;4993833;28;978;-48
2022/02/08 20:59:52;;;;;;;;;;;16.30;99.90;;;;;;4993785;28;1404;-48
2022/02/08 21:02:23;;;;;;;;;;;16.30;99.90;;;;;;4993740;28;788;-48
2022/02/08 21:05:06;;;;;;;;;;;16.30;99.90;;;;;;5019324;28;968;-48
2022/02/08 21:07:36;;;;;;;;;;;16.30;99.90;;;;;;5052676;28;1919;-48
2022/02/08 21:10:23;;;;;;;;;;;16.30;99.90;;;;;;5058300;28;805;-48
2022/02/08 21:15:26;;;;;;;;;;;16.20;99.90;;;;;;5058413;28;896;-48
2022/02/08 21:17:54;;;;;;;;;;;16.20;99.90;;;;;;5050687;28;854;-48
2022/02/08 21:20:22;;;;;;;;;;;16.20;99.90;;;;;;5039879;28;991;-48
2022/02/08 21:22:48;;;;;;;;;;;16.20;99.90;;;;;;5039844;28;750;-48
2022/02/08 21:25:15;;;;;;;;;;;16.20;99.90;;;;;;5038302;28;960;-48
2022/02/08 21:27:52;;;;;;;;;;;16.20;99.90;;;;;;5021876;28;1902;-48
2022/02/08 21:49:58;;;;;;;;;;;16.10;99.90;;;;;;5059169;28;879;-48
2022/02/08 21:55:12;;;;;;;;;;;16.00;99.90;;;;;;5059079;28;794;-48
2022/02/08 21:57:51;;;;;;;;;;;16.00;99.90;;;;;;5059157;28;810;-48
2022/02/08 22:00:22;;;;;;;;;;;16.00;99.90;;;;;;5058849;28;990;-48
2022/02/08 22:02:52;;;;;;;;;;;16.00;99.90;;;;;;5042511;28;1011;-48
2022/02/08 22:05:19;;;;;;;;;;;16.00;99.90;;;;;;5057392;28;1716;-48
2022/02/08 22:08:03;;;;;;;;;;;16.00;99.90;;;;;;5077305;28;1917;-48
2022/02/08 22:24:25;;;;;;;;;;;16.10;99.90;;;;;;4978215;28;1071;-47
2022/02/08 22:30:05;;;;;;;;;;;16.50;99.90;;;;;;4977851;28;1125;-47
2022/02/08 22:32:35;;;;;;;;;;;16.80;99.90;;;;;;4976809;28;965;-47
2022/02/08 22:35:18;;;;;;;;;;;16.90;99.90;;;;;;4981791;28;1426;-47
2022/02/08 22:37:56;;;;;;;;;;;17.10;99.90;;;;;;4977270;28;999;-48
2022/02/08 22:40:28;;;;;;;;;;;17.20;99.90;;;;;;4974922;28;1753;-47
2022/02/08 22:43:03;;;;;;;;;;;17.30;99.90;;;;;;4977987;28;1006;-47
2022/02/08 22:45:29;;;;;;;;;;;17.50;99.90;;;;;;4960982;28;926;-47
2022/02/08 22:47:57;;;;;;;;;;;17.60;99.90;;;;;;4978860;28;1981;-47
2022/02/08 22:50:23;;;;;;;;;;;17.70;99.90;;;;;;4977459;28;1114;-47
2022/02/08 22:52:50;;;;;;;;;;;17.80;99.90;;;;;;4977755;28;796;-47
2022/02/08 22:55:18;;;;;;;;;;;17.90;99.90;;;;;;5014405;28;967;-45
2022/02/08 22:57:45;;;;;;;;;;;18.00;99.90;;;;;;5004753;28;968;-47
2022/02/08 23:00:13;;;;;;;;;;;18.00;99.90;;;;;;5057824;28;888;-47
2022/02/08 23:02:40;;;;;;;;;;;18.20;99.90;;;;;;5057608;28;1185;-47
2022/02/08 23:05:17;;;;;;;;;;;18.20;99.90;;;;;;5061272;28;1557;-47
2022/02/08 23:07:50;;;;;;;;;;;18.10;99.90;;;;;;5058145;28;1965;-47
2022/02/08 23:10:21;;;;;;;;;;;18.10;99.90;;;;;;5040227;28;1021;-47
2022/02/08 23:36:53;;;;;;;;;;;18.00;99.90;;;;;;5016225;28;987;-47
2022/02/08 23:38:11;;;;;;;;;;;17.80;99.90;;;;;;5016079;28;859;-58
2022/02/08 23:40:37;;;;;;;;;;;17.80;99.90;;;;;;5015706;28;975;-58
2022/02/08 23:43:04;;;;;;;;;;;17.80;99.90;;;;;;4999137;28;1096;-57
2022/02/08 23:45:33;;;;;;;;;;;17.70;99.90;;;;;;4982687;28;992;-58
2022/02/08 23:48:06;;;;;;;;;;;17.70;99.90;;;;;;5017483;28;1906;-57
2022/02/08 23:50:48;;;;;;;;;;;17.70;99.90;;;;;;5015246;28;946;-58